Main page
METAR-TAF:

METAR-TAF

Airports :

Coleman Municipal Airport

Coleman, Texas, United States

latitude: 31-50-28N, longitude: 099-24-12W, elevation: 1696 ft

Current weather observation

The report was made 28 minutes ago, at 21:14 UTC
Wind 8 mph from the West/Southwest
Temperature 79°F
Humidity 28%
Pressure 29.77 in. Hg
Visibility: 10 miles
Clear sky

METAR: KCOM 172114Z AUTO 25007KT 10SM CLR 26/06 A2977 RMK AO2

Time: 14:42 (21:42 UTC)


TAF: missing

Weather observations and forecasts of more than 4000 airports (METAR and TAF reports).

The available stations are represented by yellow and red dots on the map.

Hover mouse over dot to see the name of the station.

Then click to see weather observations and forecasts.

To change the map : click on the green buttons with a black cross to zoom in, on the green button with a dash to zoom out, or on the green arrows for adjacent maps.


METAR-TAF: